Time;durP1;ratioP1;P1;durP2;ratioP2;P2;SDS_P1;SDS_P2;PMS_P1;PMS_P2;Temp;Humidity;BMP_temperature;BMP_pressure;BME280_temperature;BME280_humidity;BME280_pressure;Samples;Min_cycle;Max_cycle;Signal;HPM_P1;HPM_P2
2024/01/26 00:01:42;;;;;;;2.55;2.35;;;;;;;;;;5057982;27;94043;-76
2024/01/26 00:04:09;;;;;;;3.03;2.60;;;;;;;;;;5036617;27;92859;-76
2024/01/26 00:06:36;;;;;;;3.22;2.80;;;;;;;;;;5046239;27;92056;-76
2024/01/26 00:09:10;;;;;;;3.00;2.42;;;;;;;;;;5054701;27;93246;-76
2024/01/26 00:11:37;;;;;;;3.08;2.75;;;;;;;;;;5054747;27;92449;-76
2024/01/26 00:14:04;;;;;;;3.20;2.38;;;;;;;;;;5054772;27;92756;-76
2024/01/26 00:16:31;;;;;;;3.25;2.95;;;;;;;;;;5054324;27;91993;-76
2024/01/26 00:18:57;;;;;;;2.33;2.10;;;;;;;;;;5054327;27;92560;-76
2024/01/26 00:21:24;;;;;;;2.10;2.00;;;;;;;;;;5057201;27;94198;-76
2024/01/26 00:23:51;;;;;;;2.17;2.00;;;;;;;;;;5052625;27;94860;-76
2024/01/26 00:26:18;;;;;;;3.75;2.42;;;;;;;;;;5054089;27;94225;-76
2024/01/26 00:28:44;;;;;;;3.70;2.90;;;;;;;;;;5035934;27;93140;-76
2024/01/26 00:31:16;;;;;;;2.50;2.30;;;;;;;;;;5054484;27;92902;-76
2024/01/26 00:33:42;;;;;;;3.20;2.30;;;;;;;;;;5035124;27;94742;-76
2024/01/26 00:36:09;;;;;;;2.25;2.05;;;;;;;;;;5054347;27;92580;-76
2024/01/26 00:38:36;;;;;;;2.53;2.33;;;;;;;;;;5053814;27;92304;-77
2024/01/26 00:41:02;;;;;;;2.40;2.20;;;;;;;;;;5054315;27;93070;-76
2024/01/26 00:43:29;;;;;;;2.60;2.20;;;;;;;;;;5038082;27;93160;-76
2024/01/26 00:45:55;;;;;;;2.65;2.45;;;;;;;;;;5053861;27;92220;-76
2024/01/26 00:48:22;;;;;;;2.20;2.10;;;;;;;;;;5033989;27;95004;-77
2024/01/26 00:50:50;;;;;;;3.05;2.28;;;;;;;;;;5018609;27;92553;-76
2024/01/26 00:53:19;;;;;;;2.08;1.90;;;;;;;;;;5054098;27;92206;-76
2024/01/26 00:55:46;;;;;;;2.70;2.28;;;;;;;;;;5052506;27;92374;-77
2024/01/26 00:58:12;;;;;;;2.67;2.20;;;;;;;;;;5035983;27;92412;-77
2024/01/26 01:00:39;;;;;;;2.20;2.10;;;;;;;;;;5053180;27;92542;-76
2024/01/26 01:03:06;;;;;;;2.28;2.17;;;;;;;;;;5053931;27;92422;-76
2024/01/26 01:05:33;;;;;;;2.42;2.20;;;;;;;;;;5057100;27;92057;-76
2024/01/26 01:07:59;;;;;;;2.00;1.80;;;;;;;;;;5053533;27;92389;-76
2024/01/26 01:10:26;;;;;;;2.45;2.25;;;;;;;;;;5053945;27;92564;-76
2024/01/26 01:12:52;;;;;;;2.10;2.00;;;;;;;;;;5051919;27;94889;-76
2024/01/26 01:15:19;;;;;;;1.95;1.85;;;;;;;;;;5053707;27;92424;-75
2024/01/26 01:17:45;;;;;;;2.10;1.90;;;;;;;;;;5053324;27;92353;-75
2024/01/26 01:20:13;;;;;;;1.90;1.80;;;;;;;;;;5052315;27;92373;-76
2024/01/26 01:22:47;;;;;;;3.55;2.50;;;;;;;;;;5053766;27;93558;-76
2024/01/26 01:25:14;;;;;;;2.70;2.30;;;;;;;;;;5053244;27;93213;-75
2024/01/26 01:27:41;;;;;;;2.00;1.90;;;;;;;;;;5038788;27;94088;-75
2024/01/26 01:30:09;;;;;;;1.52;1.40;;;;;;;;;;5053781;27;92010;-75
2024/01/26 01:32:36;;;;;;;1.73;1.63;;;;;;;;;;5035565;27;92390;-76
2024/01/26 01:35:03;;;;;;;2.40;1.77;;;;;;;;;;5053460;27;92991;-76
2024/01/26 01:37:30;;;;;;;2.00;1.73;;;;;;;;;;5016873;27;95600;-80
2024/01/26 01:39:56;;;;;;;2.03;1.58;;;;;;;;;;5053130;27;94019;-76
2024/01/26 01:42:23;;;;;;;1.70;1.60;;;;;;;;;;5053543;27;92504;-76
2024/01/26 01:44:49;;;;;;;2.17;1.80;;;;;;;;;;5053146;27;93092;-76
2024/01/26 01:47:16;;;;;;;1.70;1.60;;;;;;;;;;5035578;27;92794;-77
2024/01/26 01:49:43;;;;;;;3.03;1.77;;;;;;;;;;5055885;27;93078;-76
2024/01/26 01:52:11;;;;;;;1.35;1.25;;;;;;;;;;5018386;27;93090;-76
2024/01/26 01:54:37;;;;;;;3.20;1.90;;;;;;;;;;5053494;27;92289;-76
2024/01/26 01:57:04;;;;;;;1.98;1.58;;;;;;;;;;5055830;27;92417;-76
2024/01/26 01:59:31;;;;;;;2.45;1.60;;;;;;;;;;5056758;27;93768;-76
2024/01/26 02:01:57;;;;;;;1.85;1.52;;;;;;;;;;5021951;27;96449;-76
2024/01/26 02:04:24;;;;;;;2.55;1.65;;;;;;;;;;5056441;27;92895;-76
2024/01/26 02:06:57;;;;;;;1.55;1.45;;;;;;;;;;5056682;27;92188;-76
2024/01/26 02:09:24;;;;;;;1.80;1.70;;;;;;;;;;5037701;27;93324;-77
2024/01/26 02:11:50;;;;;;;1.50;1.40;;;;;;;;;;5059128;27;92391;-76
2024/01/26 02:14:17;;;;;;;2.03;1.40;;;;;;;;;;5055885;27;93613;-76
2024/01/26 02:16:57;;;;;;;1.73;1.63;;;;;;;;;;5037756;27;92413;-76
2024/01/26 02:19:24;;;;;;;1.10;1.10;;;;;;;;;;5051600;27;92064;-76
2024/01/26 02:21:52;;;;;;;1.42;1.35;;;;;;;;;;5056257;27;93376;-76
2024/01/26 02:24:18;;;;;;;1.60;1.50;;;;;;;;;;5056507;27;92737;-76
2024/01/26 02:26:45;;;;;;;1.17;1.17;;;;;;;;;;5054316;27;95066;-76
2024/01/26 02:29:12;;;;;;;2.25;1.30;;;;;;;;;;5056168;27;92092;-76
2024/01/26 02:31:39;;;;;;;1.42;1.35;;;;;;;;;;5059068;27;92220;-75
2024/01/26 02:34:06;;;;;;;1.50;1.23;;;;;;;;;;5037658;27;93320;-75
2024/01/26 02:36:34;;;;;;;1.05;1.02;;;;;;;;;;5055867;27;92657;-75
2024/01/26 02:39:00;;;;;;;1.73;1.00;;;;;;;;;;5056213;27;92677;-75
2024/01/26 02:41:29;;;;;;;1.30;1.20;;;;;;;;;;5055111;27;93137;-75
2024/01/26 02:43:56;;;;;;;1.63;1.30;;;;;;;;;;5038372;27;92080;-75
2024/01/26 02:46:22;;;;;;;1.55;1.05;;;;;;;;;;5055419;27;92488;-75
2024/01/26 02:48:49;;;;;;;3.38;1.17;;;;;;;;;;5055777;27;92376;-76
2024/01/26 02:51:16;;;;;;;0.93;0.93;;;;;;;;;;5054461;27;94839;-76
2024/01/26 02:53:42;;;;;;;1.85;1.20;;;;;;;;;;5040645;27;94208;-76
2024/01/26 02:56:09;;;;;;;1.98;1.48;;;;;;;;;;5037092;27;92489;-76
2024/01/26 02:58:36;;;;;;;1.02;1.02;;;;;;;;;;5055126;27;93891;-76
2024/01/26 03:01:02;;;;;;;1.00;0.95;;;;;;;;;;5055665;27;92869;-76
2024/01/26 03:03:29;;;;;;;1.67;1.30;;;;;;;;;;5055444;27;92659;-76
2024/01/26 03:05:55;;;;;;;1.13;1.02;;;;;;;;;;5055151;27;92516;-76
2024/01/26 03:08:22;;;;;;;1.20;1.15;;;;;;;;;;5054928;27;92247;-76
2024/01/26 03:10:50;;;;;;;0.98;0.98;;;;;;;;;;5055216;27;92867;-76
2024/01/26 03:13:18;;;;;;;1.27;1.17;;;;;;;;;;5055347;27;92906;-76
2024/01/26 03:15:49;;;;;;;1.05;1.05;;;;;;;;;;5056967;27;95373;-76
2024/01/26 03:18:16;;;;;;;;;;;;;;;;;;5055762;27;93845;-76
2024/01/26 03:20:43;;;;;;;1.13;1.02;;;;;;;;;;5053121;27;121657;-76
2024/01/26 03:23:10;;;;;;;1.88;1.27;;;;;;;;;;5053889;27;93634;-76
2024/01/26 03:25:36;;;;;;;1.33;1.23;;;;;;;;;;5054992;27;92349;-76
2024/01/26 03:28:03;;;;;;;1.35;1.30;;;;;;;;;;5055284;27;92452;-76
2024/01/26 03:30:29;;;;;;;1.42;1.30;;;;;;;;;;5025749;27;93277;-76
2024/01/26 03:32:56;;;;;;;2.72;1.20;;;;;;;;;;5062775;27;92222;-75
2024/01/26 03:35:23;;;;;;;1.48;1.38;;;;;;;;;;5060628;27;92345;-76
2024/01/26 03:37:49;;;;;;;1.40;1.30;;;;;;;;;;5062393;27;92476;-76
2024/01/26 03:40:16;;;;;;;2.13;1.50;;;;;;;;;;5053315;27;95504;-76
2024/01/26 03:42:42;;;;;;;1.42;1.33;;;;;;;;;;5055088;27;92211;-76
2024/01/26 03:45:09;;;;;;;2.58;1.40;;;;;;;;;;5055115;27;92299;-76
2024/01/26 03:47:35;;;;;;;1.17;1.17;;;;;;;;;;5030610;28;92476;-77
2024/01/26 03:50:04;;;;;;;1.45;1.35;;;;;;;;;;5046721;27;92538;-76
2024/01/26 03:52:31;;;;;;;1.10;1.10;;;;;;;;;;5054983;27;92478;-75
2024/01/26 03:54:57;;;;;;;2.97;1.42;;;;;;;;;;5054453;27;92979;-75
2024/01/26 03:57:24;;;;;;;1.42;1.23;;;;;;;;;;5054614;27;92027;-76
2024/01/26 03:59:50;;;;;;;1.65;1.10;;;;;;;;;;5039076;27;92922;-76
2024/01/26 04:02:17;;;;;;;1.35;1.30;;;;;;;;;;5036615;27;94485;-76
2024/01/26 04:04:44;;;;;;;1.20;1.08;;;;;;;;;;5052908;27;94764;-77
2024/01/26 04:07:11;;;;;;;8.93;1.30;;;;;;;;;;5036461;27;92435;-76
2024/01/26 04:09:38;;;;;;;4.22;1.27;;;;;;;;;;5029925;27;92540;-76
2024/01/26 04:12:04;;;;;;;1.63;1.30;;;;;;;;;;5035924;27;94060;-76
2024/01/26 04:14:31;;;;;;;3.63;1.52;;;;;;;;;;5054273;27;92507;-76
2024/01/26 04:16:57;;;;;;;1.05;1.02;;;;;;;;;;5054371;27;92392;-76
2024/01/26 04:19:24;;;;;;;2.20;1.33;;;;;;;;;;5053861;27;92343;-76
2024/01/26 04:21:51;;;;;;;1.90;1.15;;;;;;;;;;5039644;27;91872;-76
2024/01/26 04:24:19;;;;;;;2.65;1.08;;;;;;;;;;5054469;27;92325;-76
2024/01/26 04:26:45;;;;;;;1.13;1.10;;;;;;;;;;5054033;27;94833;-76
2024/01/26 04:29:12;;;;;;;1.48;1.20;;;;;;;;;;5052879;27;94841;-76
2024/01/26 04:31:42;;;;;;;1.20;1.10;;;;;;;;;;5035706;27;95366;-76
2024/01/26 04:34:08;;;;;;;1.58;1.48;;;;;;;;;;5054473;27;92511;-76
2024/01/26 04:36:35;;;;;;;1.35;1.25;;;;;;;;;;5035631;27;92302;-76
2024/01/26 04:39:02;;;;;;;1.70;1.00;;;;;;;;;;5035654;27;93613;-76
2024/01/26 04:41:29;;;;;;;1.77;1.17;;;;;;;;;;5057334;27;92500;-76
2024/01/26 04:43:56;;;;;;;1.38;1.27;;;;;;;;;;5045802;27;92838;-77
2024/01/26 04:46:22;;;;;;;1.90;1.60;;;;;;;;;;5054105;27;92371;-76
2024/01/26 04:48:49;;;;;;;1.00;1.00;;;;;;;;;;5053844;27;92444;-76
2024/01/26 04:51:16;;;;;;;1.98;1.42;;;;;;;;;;5053986;27;92331;-76
2024/01/26 04:53:42;;;;;;;1.00;0.90;;;;;;;;;;5051883;27;94608;-76
2024/01/26 04:56:10;;;;;;;1.35;1.23;;;;;;;;;;5053981;27;93121;-76
2024/01/26 04:58:37;;;;;;;1.42;1.30;;;;;;;;;;5035653;27;92923;-77
2024/01/26 05:01:04;;;;;;;1.63;1.10;;;;;;;;;;5035886;27;92297;-77
2024/01/26 05:03:30;;;;;;;1.65;1.40;;;;;;;;;;5057082;27;92469;-77
2024/01/26 05:05:57;;;;;;;1.40;1.30;;;;;;;;;;5035016;27;94579;-77
2024/01/26 05:08:23;;;;;;;1.27;1.15;;;;;;;;;;5053944;27;92881;-76
2024/01/26 05:10:51;;;;;;;2.85;1.30;;;;;;;;;;5053543;27;93014;-76
2024/01/26 05:13:17;;;;;;;1.08;1.00;;;;;;;;;;5053513;27;92455;-76
2024/01/26 05:15:44;;;;;;;1.55;1.45;;;;;;;;;;5053571;27;93057;-76
2024/01/26 05:18:10;;;;;;;2.35;1.83;;;;;;;;;;5034489;27;94494;-77
2024/01/26 05:20:37;;;;;;;1.52;1.42;;;;;;;;;;5053761;27;93020;-77
2024/01/26 05:23:03;;;;;;;2.17;1.50;;;;;;;;;;5045483;27;92176;-76
2024/01/26 05:25:30;;;;;;;2.92;1.23;;;;;;;;;;5057034;27;92977;-76
2024/01/26 05:27:56;;;;;;;1.48;1.17;;;;;;;;;;5035516;27;93578;-77
2024/01/26 05:30:23;;;;;;;2.88;1.00;;;;;;;;;;5054709;27;92867;-76
2024/01/26 05:32:49;;;;;;;2.10;1.10;;;;;;;;;;5038645;27;92365;-76
2024/01/26 05:35:16;;;;;;;1.33;1.23;;;;;;;;;;5057216;27;91932;-76
2024/01/26 05:37:43;;;;;;;1.38;1.25;;;;;;;;;;5057281;27;92415;-76
2024/01/26 05:40:10;;;;;;;1.70;1.17;;;;;;;;;;5038171;27;95810;-76
2024/01/26 05:42:37;;;;;;;1.33;1.23;;;;;;;;;;5055115;27;94861;-76
2024/01/26 05:45:04;;;;;;;1.65;1.55;;;;;;;;;;5056796;27;95213;-76
2024/01/26 05:47:31;;;;;;;2.22;1.38;;;;;;;;;;5035946;27;93223;-76
2024/01/26 05:49:57;;;;;;;2.17;1.38;;;;;;;;;;5056722;27;92452;-77
2024/01/26 05:52:24;;;;;;;2.55;1.08;;;;;;;;;;5055742;27;92531;-76
2024/01/26 05:54:50;;;;;;;1.40;1.30;;;;;;;;;;5037845;27;93115;-76
2024/01/26 05:57:17;;;;;;;3.45;1.10;;;;;;;;;;5056416;27;92489;-76
2024/01/26 05:59:43;;;;;;;1.45;1.33;;;;;;;;;;5057199;27;91896;-76
2024/01/26 06:02:10;;;;;;;1.42;1.33;;;;;;;;;;5056660;27;92474;-76
2024/01/26 06:04:36;;;;;;;2.97;1.65;;;;;;;;;;5050595;27;92682;-76
2024/01/26 06:07:03;;;;;;;1.85;1.33;;;;;;;;;;5030533;27;94981;-76
2024/01/26 06:09:30;;;;;;;2.03;0.90;;;;;;;;;;5058794;27;94504;-76
2024/01/26 06:11:56;;;;;;;1.10;1.00;;;;;;;;;;5056382;27;93204;-76
2024/01/26 06:14:23;;;;;;;2.25;1.30;;;;;;;;;;5056436;27;92335;-76
2024/01/26 06:16:49;;;;;;;0.80;0.80;;;;;;;;;;5056335;27;92922;-76
2024/01/26 06:19:15;;;;;;;2.20;1.23;;;;;;;;;;5056532;27;93363;-76
2024/01/26 06:21:42;;;;;;;1.58;1.42;;;;;;;;;;5037675;27;92520;-76
2024/01/26 06:24:09;;;;;;;2.72;1.23;;;;;;;;;;5038395;27;94053;-76
2024/01/26 06:26:36;;;;;;;3.83;1.67;;;;;;;;;;5055648;27;92369;-76
2024/01/26 06:29:03;;;;;;;1.17;1.10;;;;;;;;;;5056111;27;92665;-76
2024/01/26 06:31:30;;;;;;;4.68;0.95;;;;;;;;;;5056980;27;94851;-76
2024/01/26 06:33:57;;;;;;;1.20;0.90;;;;;;;;;;5020905;27;95218;-76
2024/01/26 06:36:23;;;;;;;1.15;0.85;;;;;;;;;;5055788;27;92466;-76
2024/01/26 06:38:50;;;;;;;2.38;1.10;;;;;;;;;;5037768;27;92455;-76
2024/01/26 06:41:16;;;;;;;0.95;0.90;;;;;;;;;;5038445;27;92140;-77
2024/01/26 06:43:50;;;;;;;0.90;0.90;;;;;;;;;;5056247;27;92492;-76
2024/01/26 06:46:23;;;;;;;1.00;0.98;;;;;;;;;;5056532;27;92462;-76
2024/01/26 06:48:50;;;;;;;2.13;1.33;;;;;;;;;;5046753;27;93104;-76
2024/01/26 06:51:17;;;;;;;2.22;1.00;;;;;;;;;;5058663;27;94180;-76
2024/01/26 06:53:44;;;;;;;2.35;0.70;;;;;;;;;;5056028;27;92650;-76
2024/01/26 06:56:10;;;;;;;2.47;1.08;;;;;;;;;;5054098;27;94711;-77
2024/01/26 06:58:37;;;;;;;1.90;1.10;;;;;;;;;;5053385;27;92594;-76
2024/01/26 07:01:04;;;;;;;0.70;0.70;;;;;;;;;;5046674;27;92505;-76
2024/01/26 07:03:30;;;;;;;1.08;1.08;;;;;;;;;;5034949;27;92334;-76
2024/01/26 07:05:57;;;;;;;1.00;0.90;;;;;;;;;;5035154;27;94002;-77
2024/01/26 07:08:23;;;;;;;1.13;0.98;;;;;;;;;;5034816;27;92867;-76
2024/01/26 07:10:50;;;;;;;0.80;0.80;;;;;;;;;;5034553;27;93806;-76
2024/01/26 07:13:16;;;;;;;6.07;0.90;;;;;;;;;;5057422;27;91943;-76
2024/01/26 07:15:43;;;;;;;3.70;0.98;;;;;;;;;;5053868;27;92374;-76
2024/01/26 07:18:09;;;;;;;2.53;1.20;;;;;;;;;;5034113;27;94163;-76
2024/01/26 07:20:36;;;;;;;1.45;1.35;;;;;;;;;;5051295;27;95454;-76
2024/01/26 07:23:05;;;;;;;34.30;2.17;;;;;;;;;;5054256;27;95184;-77
2024/01/26 07:25:31;;;;;;;12.00;1.17;;;;;;;;;;5031827;27;94478;-76
2024/01/26 07:27:58;;;;;;;11.25;1.15;;;;;;;;;;5050635;27;93045;-76
2024/01/26 07:30:25;;;;;;;5.70;1.17;;;;;;;;;;5053319;27;92933;-76
2024/01/26 07:32:51;;;;;;;2.40;1.13;;;;;;;;;;5036170;27;92556;-76
2024/01/26 07:35:18;;;;;;;4.15;0.90;;;;;;;;;;5057490;27;92868;-76
2024/01/26 07:37:45;;;;;;;1.35;1.10;;;;;;;;;;5055040;27;91955;-77
2024/01/26 07:40:11;;;;;;;4.82;1.27;;;;;;;;;;5054314;27;94259;-77
2024/01/26 07:42:38;;;;;;;0.90;0.90;;;;;;;;;;5053835;27;92496;-76
2024/01/26 07:45:05;;;;;;;2.80;1.13;;;;;;;;;;5034214;27;97141;-76
2024/01/26 07:47:34;;;;;;;3.22;1.33;;;;;;;;;;5036347;27;93869;-77
2024/01/26 07:50:02;;;;;;;2.72;1.05;;;;;;;;;;5035652;27;94541;-76
2024/01/26 07:52:29;;;;;;;7.20;1.13;;;;;;;;;;5054342;27;92378;-76
2024/01/26 07:54:55;;;;;;;1.30;0.68;;;;;;;;;;5053309;27;92452;-76
2024/01/26 07:57:22;;;;;;;1.00;1.00;;;;;;;;;;5057441;27;92258;-77
2024/01/26 07:59:48;;;;;;;2.83;0.80;;;;;;;;;;5035357;27;93531;-76
2024/01/26 08:02:15;;;;;;;1.02;0.98;;;;;;;;;;5036670;27;91952;-76
2024/01/26 08:04:41;;;;;;;1.73;1.00;;;;;;;;;;5053159;27;92425;-76
2024/01/26 08:07:08;;;;;;;3.28;0.70;;;;;;;;;;5054130;27;92997;-76
2024/01/26 08:09:35;;;;;;;3.20;0.90;;;;;;;;;;5052729;27;94832;-77
2024/01/26 08:12:02;;;;;;;1.98;0.70;;;;;;;;;;5053497;27;92150;-76
2024/01/26 08:14:28;;;;;;;0.82;0.80;;;;;;;;;;5053820;27;92462;-76
2024/01/26 08:16:55;;;;;;;0.80;0.80;;;;;;;;;;5053603;27;93505;-76
2024/01/26 08:19:21;;;;;;;2.85;0.93;;;;;;;;;;5057382;27;92504;-76
2024/01/26 08:21:51;;;;;;;1.75;0.80;;;;;;;;;;5053217;27;92588;-76
2024/01/26 08:24:18;;;;;;;1.75;0.95;;;;;;;;;;5035983;27;92760;-75
2024/01/26 08:26:45;;;;;;;1.65;0.90;;;;;;;;;;5051607;27;91990;-76
2024/01/26 08:29:12;;;;;;;1.38;0.90;;;;;;;;;;5032667;27;92951;-76
2024/01/26 08:31:39;;;;;;;0.85;0.80;;;;;;;;;;5051136;27;92517;-76
2024/01/26 08:34:05;;;;;;;1.60;0.73;;;;;;;;;;5048570;27;94901;-76
2024/01/26 08:36:33;;;;;;;1.55;0.75;;;;;;;;;;5051434;27;95401;-76
2024/01/26 08:38:59;;;;;;;2.58;1.00;;;;;;;;;;5051639;27;93209;-76
2024/01/26 08:41:26;;;;;;;1.13;0.70;;;;;;;;;;5054788;27;92418;-76
2024/01/26 08:43:53;;;;;;;1.23;1.08;;;;;;;;;;5034383;27;92527;-76
2024/01/26 08:46:20;;;;;;;0.52;0.52;;;;;;;;;;5051533;27;92857;-76
2024/01/26 08:48:46;;;;;;;4.40;0.68;;;;;;;;;;5050267;27;92992;-77
2024/01/26 08:51:13;;;;;;;0.65;0.65;;;;;;;;;;5019955;27;92121;-76
2024/01/26 08:53:40;;;;;;;1.13;0.70;;;;;;;;;;5034576;27;92830;-76
2024/01/26 08:56:06;;;;;;;0.98;0.60;;;;;;;;;;5052742;27;92852;-77
2024/01/26 08:58:33;;;;;;;0.65;0.63;;;;;;;;;;5051088;27;94512;-76
2024/01/26 09:01:00;;;;;;;0.82;0.82;;;;;;;;;;5037437;27;95141;-76
2024/01/26 09:03:27;;;;;;;1.45;0.90;;;;;;;;;;5052754;27;92475;-76
2024/01/26 09:05:53;;;;;;;4.22;0.90;;;;;;;;;;5053180;27;92933;-76
2024/01/26 09:08:20;;;;;;;5.57;0.95;;;;;;;;;;5057069;27;92998;-76
2024/01/26 09:10:46;;;;;;;1.45;0.70;;;;;;;;;;5021550;27;94036;-77
2024/01/26 09:13:13;;;;;;;2.03;0.80;;;;;;;;;;5038207;27;92929;-76
2024/01/26 09:15:40;;;;;;;1.25;0.50;;;;;;;;;;5022244;27;95004;-76
2024/01/26 09:18:06;;;;;;;2.00;0.68;;;;;;;;;;5069281;27;92540;-76
2024/01/26 09:20:33;;;;;;;3.22;0.82;;;;;;;;;;5053617;27;92947;-76
2024/01/26 09:22:59;;;;;;;1.17;0.80;;;;;;;;;;5044642;27;94885;-76
2024/01/26 09:25:26;;;;;;;2.22;0.77;;;;;;;;;;5054882;27;92411;-76
2024/01/26 09:27:52;;;;;;;1.70;0.80;;;;;;;;;;5026989;27;92503;-76
2024/01/26 09:30:19;;;;;;;1.55;0.75;;;;;;;;;;5037503;27;94197;-76
2024/01/26 09:32:51;;;;;;;1.52;0.80;;;;;;;;;;5032383;27;92841;-76
2024/01/26 09:35:17;;;;;;;2.33;0.80;;;;;;;;;;5056253;27;92421;-76
2024/01/26 09:37:44;;;;;;;1.20;0.82;;;;;;;;;;5037588;27;94374;-77
2024/01/26 09:40:12;;;;;;;3.75;0.77;;;;;;;;;;5055021;27;92930;-78
2024/01/26 09:42:39;;;;;;;2.65;0.80;;;;;;;;;;5036075;27;92519;-77
2024/01/26 09:45:07;;;;;;;2.08;0.80;;;;;;;;;;5038488;27;92499;-77
2024/01/26 09:47:34;;;;;;;1.73;0.70;;;;;;;;;;5052133;27;94774;-77
2024/01/26 09:50:04;;;;;;;3.63;1.25;;;;;;;;;;5053592;27;94540;-76
2024/01/26 09:52:33;;;;;;;1.38;0.70;;;;;;;;;;5054037;27;92419;-77
2024/01/26 09:55:01;;;;;;;2.17;0.93;;;;;;;;;;5036241;27;92371;-77
2024/01/26 09:57:29;;;;;;;2.63;0.70;;;;;;;;;;5036631;27;94655;-77
2024/01/26 09:59:56;;;;;;;3.13;0.73;;;;;;;;;;5055186;27;92584;-77
2024/01/26 10:02:22;;;;;;;2.95;1.15;;;;;;;;;;5026345;27;92421;-77
2024/01/26 10:04:49;;;;;;;1.75;0.80;;;;;;;;;;5054342;27;91757;-77
2024/01/26 10:07:15;;;;;;;3.40;0.80;;;;;;;;;;5057492;27;92908;-77
2024/01/26 10:09:42;;;;;;;2.50;0.70;;;;;;;;;;5053849;27;92915;-77
2024/01/26 10:12:10;;;;;;;3.38;0.80;;;;;;;;;;5025775;27;94949;-77
2024/01/26 10:14:37;;;;;;;2.00;0.63;;;;;;;;;;5035295;27;96342;-77
2024/01/26 10:17:05;;;;;;;3.25;0.82;;;;;;;;;;5036082;27;93283;-77
2024/01/26 10:19:31;;;;;;;2.42;0.57;;;;;;;;;;5053472;27;93549;-77
2024/01/26 10:21:59;;;;;;;8.65;0.98;;;;;;;;;;5054634;27;92377;-78
2024/01/26 10:24:27;;;;;;;4.80;1.30;;;;;;;;;;5036382;27;92206;-77
2024/01/26 10:26:54;;;;;;;6.07;1.15;;;;;;;;;;5035665;27;95096;-77
2024/01/26 10:29:22;;;;;;;8.32;0.90;;;;;;;;;;5057576;27;91927;-77
2024/01/26 10:31:50;;;;;;;5.20;0.98;;;;;;;;;;5053829;27;92425;-77
2024/01/26 10:34:17;;;;;;;3.25;0.93;;;;;;;;;;5035661;27;92907;-76
2024/01/26 10:36:47;;;;;;;2.72;1.00;;;;;;;;;;5051768;27;94816;-77
2024/01/26 10:39:28;;;;;;;2.78;0.73;;;;;;;;;;5049005;27;92447;-77
2024/01/26 10:42:04;;;;;;;3.17;0.90;;;;;;;;;;5053646;27;92358;-77
2024/01/26 10:44:33;;;;;;;2.92;0.77;;;;;;;;;;5053868;27;93072;-76
2024/01/26 10:47:02;;;;;;;4.20;0.93;;;;;;;;;;5034691;27;95148;-77
2024/01/26 10:49:29;;;;;;;2.92;1.20;;;;;;;;;;5056297;27;92401;-77
2024/01/26 10:51:58;;;;;;;4.13;1.10;;;;;;;;;;5041983;27;92709;-77
2024/01/26 10:54:27;;;;;;;8.65;1.15;;;;;;;;;;5037082;27;91992;-77
2024/01/26 10:56:53;;;;;;;3.75;1.33;;;;;;;;;;5019191;27;95087;-77
2024/01/26 10:59:20;;;;;;;4.47;1.40;;;;;;;;;;4980204;27;1143382;-77
2024/01/26 11:01:47;;;;;;;3.42;1.15;;;;;;;;;;5052834;27;94849;-76
2024/01/26 11:04:14;;;;;;;3.90;1.08;;;;;;;;;;5036408;27;95442;-77
2024/01/26 11:06:40;;;;;;;6.45;1.20;;;;;;;;;;5053911;27;93075;-77
2024/01/26 11:09:10;;;;;;;3.97;1.23;;;;;;;;;;5035768;27;93824;-77
2024/01/26 11:11:37;;;;;;;6.28;1.55;;;;;;;;;;5057583;27;92364;-79
2024/01/26 11:14:10;;;;;;;4.28;1.20;;;;;;;;;;5054620;27;92854;-77
2024/01/26 11:16:42;;;;;;;10.75;1.67;;;;;;;;;;5031501;27;92465;-77
2024/01/26 11:19:08;;;;;;;9.35;1.08;;;;;;;;;;5055205;27;91662;-77
2024/01/26 11:21:36;;;;;;;3.00;1.45;;;;;;;;;;5054420;27;92819;-77
2024/01/26 11:24:12;;;;;;;4.85;1.50;;;;;;;;;;5054843;27;93269;-77
2024/01/26 11:26:39;;;;;;;4.07;1.38;;;;;;;;;;5052444;27;94922;-77
2024/01/26 11:29:12;;;;;;;3.75;1.20;;;;;;;;;;5052700;27;95200;-77
2024/01/26 11:31:40;;;;;;;6.35;0.90;;;;;;;;;;5055174;27;92293;-77
2024/01/26 11:34:16;;;;;;;6.80;2.00;;;;;;;;;;5056581;27;92324;-77
2024/01/26 11:36:42;;;;;;;2.90;1.08;;;;;;;;;;5054810;27;92460;-77
2024/01/26 11:39:13;;;;;;;6.57;2.25;;;;;;;;;;5053361;27;93002;-77
2024/01/26 11:41:45;;;;;;;9.57;3.78;;;;;;;;;;5054265;27;92425;-77
2024/01/26 11:44:20;;;;;;;15.15;4.53;;;;;;;;;;5031909;27;94931;-77
2024/01/26 11:46:47;;;;;;;10.80;4.60;;;;;;;;;;5047157;27;92380;-77
2024/01/26 11:49:14;;;;;;;8.60;3.65;;;;;;;;;;5035071;27;92502;-77
2024/01/26 11:51:41;;;;;;;9.55;3.95;;;;;;;;;;5051916;27;94806;-77
2024/01/26 11:54:08;;;;;;;10.55;3.65;;;;;;;;;;5034572;27;92503;-77
2024/01/26 11:56:34;;;;;;;10.35;2.70;;;;;;;;;;5055641;27;93027;-77
2024/01/26 11:59:01;;;;;;;6.55;2.75;;;;;;;;;;5034339;27;95022;-77
2024/01/26 12:01:28;;;;;;;8.32;2.95;;;;;;;;;;5034210;27;92411;-77
2024/01/26 12:03:54;;;;;;;12.30;2.60;;;;;;;;;;5034262;27;92943;-77
2024/01/26 12:06:21;;;;;;;7.50;2.55;;;;;;;;;;5051374;27;94100;-77
2024/01/26 12:08:48;;;;;;;4.22;2.17;;;;;;;;;;5053264;27;93099;-77
2024/01/26 12:11:17;;;;;;;6.57;2.20;;;;;;;;;;5034885;27;95105;-77
2024/01/26 12:13:44;;;;;;;9.32;2.53;;;;;;;;;;5035362;27;92517;-77
2024/01/26 12:16:10;;;;;;;9.85;2.80;;;;;;;;;;5051749;27;94909;-77
2024/01/26 12:18:37;;;;;;;8.63;2.55;;;;;;;;;;5055734;27;94081;-77
2024/01/26 12:21:03;;;;;;;8.98;2.70;;;;;;;;;;5042784;27;92451;-77
2024/01/26 12:23:32;;;;;;;7.88;2.85;;;;;;;;;;5035201;27;93317;-77
2024/01/26 12:25:58;;;;;;;6.95;2.80;;;;;;;;;;5017110;27;95823;-77
2024/01/26 12:28:27;;;;;;;9.18;2.30;;;;;;;;;;5052332;27;92548;-77
2024/01/26 12:30:54;;;;;;;7.93;1.85;;;;;;;;;;5050989;27;92814;-77
2024/01/26 12:33:22;;;;;;;13.15;3.53;;;;;;;;;;5033999;27;92966;-78
2024/01/26 12:35:51;;;;;;;7.13;1.85;;;;;;;;;;5052740;27;92421;-77
2024/01/26 12:38:18;;;;;;;8.50;2.10;;;;;;;;;;5052622;27;92250;-77
2024/01/26 12:40:44;;;;;;;12.02;1.95;;;;;;;;;;5054372;27;94887;-77
2024/01/26 12:43:14;;;;;;;6.95;2.20;;;;;;;;;;5051400;27;92459;-77
2024/01/26 12:45:41;;;;;;;6.10;2.10;;;;;;;;;;5052377;27;92254;-77
2024/01/26 12:48:08;;;;;;;5.32;1.85;;;;;;;;;;5031280;27;94825;-77
2024/01/26 12:50:35;;;;;;;7.55;2.25;;;;;;;;;;5037327;27;94994;-79
2024/01/26 12:53:02;;;;;;;9.23;2.03;;;;;;;;;;5030743;27;95904;-77
2024/01/26 12:55:28;;;;;;;5.93;2.00;;;;;;;;;;5052590;27;92886;-76
2024/01/26 12:57:55;;;;;;;6.18;2.10;;;;;;;;;;5051179;27;92545;-76
2024/01/26 13:00:22;;;;;;;6.35;2.30;;;;;;;;;;5054647;27;93260;-77
2024/01/26 13:02:48;;;;;;;10.90;2.20;;;;;;;;;;5051509;27;92464;-76
2024/01/26 13:05:15;;;;;;;8.63;2.42;;;;;;;;;;5030599;27;95350;-77
2024/01/26 13:07:42;;;;;;;9.48;1.90;;;;;;;;;;5032612;27;94834;-77
2024/01/26 13:10:09;;;;;;;5.30;1.70;;;;;;;;;;5048859;27;93075;-78
2024/01/26 13:12:35;;;;;;;8.18;1.92;;;;;;;;;;5034684;27;92888;-77
2024/01/26 13:15:02;;;;;;;11.10;2.88;;;;;;;;;;5052505;27;92890;-76
2024/01/26 13:17:29;;;;;;;5.97;2.00;;;;;;;;;;5052790;27;92398;-76
2024/01/26 13:19:55;;;;;;;4.65;1.38;;;;;;;;;;5051948;27;92275;-77
2024/01/26 13:22:34;;;;;;;8.73;2.10;;;;;;;;;;5038514;27;92278;-77
2024/01/26 13:25:01;;;;;;;2.08;1.33;;;;;;;;;;5052118;27;92377;-77
2024/01/26 13:27:27;;;;;;;6.35;1.83;;;;;;;;;;5040413;27;92404;-76
2024/01/26 13:29:54;;;;;;;9.38;1.60;;;;;;;;;;5050840;27;95557;-77
2024/01/26 13:32:20;;;;;;;5.05;1.90;;;;;;;;;;5034162;27;94741;-77
2024/01/26 13:34:47;;;;;;;9.00;2.10;;;;;;;;;;5052524;27;92225;-77
2024/01/26 13:37:14;;;;;;;7.75;1.80;;;;;;;;;;5034414;27;92310;-77
2024/01/26 13:39:40;;;;;;;5.82;1.98;;;;;;;;;;5052441;27;93059;-77
2024/01/26 13:42:06;;;;;;;4.13;1.63;;;;;;;;;;5052253;27;93159;-77
2024/01/26 13:44:34;;;;;;;5.40;1.27;;;;;;;;;;5055643;27;93172;-77
2024/01/26 13:47:00;;;;;;;6.30;2.05;;;;;;;;;;5052887;27;92151;-77
2024/01/26 13:49:27;;;;;;;6.05;1.63;;;;;;;;;;5034203;27;93000;-77
2024/01/26 13:51:54;;;;;;;6.57;1.92;;;;;;;;;;5054126;27;92911;-76
2024/01/26 13:54:21;;;;;;;7.65;1.75;;;;;;;;;;5036156;27;94820;-76
2024/01/26 13:56:51;;;;;;;7.38;1.80;;;;;;;;;;5038003;27;92677;-77
2024/01/26 13:59:18;;;;;;;5.03;1.50;;;;;;;;;;5055771;27;94373;-76
2024/01/26 14:01:44;;;;;;;7.00;1.50;;;;;;;;;;5055244;27;92980;-77
2024/01/26 14:04:11;;;;;;;6.13;1.45;;;;;;;;;;5036927;27;94170;-76
2024/01/26 14:06:38;;;;;;;4.57;1.60;;;;;;;;;;5058748;27;93683;-76
2024/01/26 14:09:05;;;;;;;7.70;1.88;;;;;;;;;;5036714;27;94597;-77
2024/01/26 14:11:36;;;;;;;9.52;1.98;;;;;;;;;;5056476;27;91921;-77
2024/01/26 14:14:04;;;;;;;9.13;1.63;;;;;;;;;;5055741;27;92258;-77
2024/01/26 14:16:33;;;;;;;4.68;1.67;;;;;;;;;;5036599;27;92476;-78
2024/01/26 14:18:59;;;;;;;5.72;1.45;;;;;;;;;;5036206;27;94887;-78
2024/01/26 14:21:26;;;;;;;5.63;1.30;;;;;;;;;;5036346;27;95082;-78
2024/01/26 14:23:53;;;;;;;3.00;1.48;;;;;;;;;;5054042;27;92475;-78
2024/01/26 14:26:20;;;;;;;7.93;1.63;;;;;;;;;;5053337;27;92521;-77
2024/01/26 14:28:47;;;;;;;6.68;1.45;;;;;;;;;;5056621;27;93080;-78
2024/01/26 14:31:13;;;;;;;7.40;1.65;;;;;;;;;;5052942;27;93693;-77
2024/01/26 14:33:40;;;;;;;7.30;1.50;;;;;;;;;;5036337;27;92335;-77
2024/01/26 14:36:07;;;;;;;6.90;1.58;;;;;;;;;;5055788;27;92874;-77
2024/01/26 14:38:34;;;;;;;11.93;1.75;;;;;;;;;;5055167;27;92584;-77
2024/01/26 14:41:00;;;;;;;4.75;1.65;;;;;;;;;;5055600;27;92584;-77
2024/01/26 14:43:27;;;;;;;5.43;2.25;;;;;;;;;;5035208;27;94888;-77